Latest Weather Observations for Rottnest Island

IDW60801

Issued at 10:35 pm WST Wednesday 26 November 2014 (issued every 30 minutes, with the page automatically refreshed every 10 minutes)

About weather observations | Map of weather stations | Latest weather observations for WA | Other Formats
Station Details ID: 009193 Name: ROTTNEST ISLAND Lat: -32.01 Lon: 115.50 Height: 43.1 m
Data from the previous 72 hours. | See also: Recent months at Rottnest Island
Date/Time
WST
Temp
°C
App
Temp
°C
Dew
Point
Rel
Hum
%
Delta-T
°C
Wind Press
QNH
hPa
Press
MSL
hPa
Rain
since 9 am
mm
Dir
 
Spd
km/h
Gust
km/h
Spd
kts
Gust
kts
26/10:30pm 21.5 18.7 15.3 68 3.7 ENE 24 35 13 19 1009.3 1009.1 6.2
26/10:00pm 21.4 18.5 15.0 67 3.8 E 24 35 13 19 1009.5 1009.3 6.2
26/09:30pm 20.6 19.0 16.0 75 2.8 ESE 19 24 10 13 1009.5 1009.3 6.2
26/09:00pm 20.4 18.4 16.4 78 2.4 ESE 22 32 12 17 1009.6 1009.4 6.2
26/08:30pm 20.9 17.2 15.9 73 3.0 E 30 39 16 21 1009.9 1009.7 6.2
26/08:00pm 20.4 16.4 16.2 77 2.5 E 32 46 17 25 1009.7 1009.5 6.2
26/07:52pm 20.2 16.6 16.2 78 2.4 E 30 48 16 26 1009.5 1009.3 6.2
26/07:30pm 20.4 16.2 16.2 77 2.5 E 33 46 18 25 1010.6 1010.4 6.0
26/07:00pm 20.2 16.7 16.4 79 2.3 E 30 43 16 23 1010.7 1010.5 6.0
26/06:30pm 20.0 15.4 16.2 79 2.3 E 35 48 19 26 1009.9 1009.7 5.4
26/06:01pm 20.8 14.9 15.8 73 3.0 E 41 59 22 32 1009.2 1009.0 4.2
26/06:00pm 20.8 14.5 15.6 72 3.1 E 43 59 23 32 1009.0 1008.8 4.2
26/05:34pm 21.1 15.2 15.6 71 3.3 ENE 41 63 22 34 1008.6 1008.4 3.2
26/05:30pm 21.1 16.0 15.9 72 3.1 ENE 37 48 20 26 1008.9 1008.7 3.0
26/05:17pm 22.4 17.9 15.5 65 4.1 NE 33 52 18 28 1009.2 1009.0 2.4
26/05:00pm 23.9 20.4 14.6 56 5.5 ENE 26 43 14 23 1008.9 1008.7 2.2
26/04:30pm 22.7 21.1 16.0 66 4.1 E 19 26 10 14 1007.8 1007.7 2.2
26/04:00pm 21.9 19.9 16.4 71 3.3 ESE 22 32 12 17 1007.0 1006.9 2.2
26/03:30pm 22.1 18.3 17.2 74 3.0 SE 33 46 18 25 1006.8 1006.7 2.0
26/03:00pm 22.0 18.1 16.9 73 3.1 SSE 33 43 18 23 1006.4 1006.3 2.0
26/02:30pm 22.6 18.4 17.1 71 3.4 SSE 35 44 19 24 1006.7 1006.6 2.0
26/02:00pm 22.2 18.3 16.9 72 3.3 SSE 33 43 18 23 1007.6 1007.5 2.0
26/01:30pm 21.2 16.6 16.2 73 3.0 SSE 35 43 19 23 1008.4 1008.2 2.0
26/01:00pm 21.1 18.9 15.9 72 3.1 S 22 32 12 17 1009.4 1009.2 1.2
26/12:30pm 23.4 21.1 14.7 58 5.2 SW 20 24 11 13 1010.2 1010.0 0.0
26/12:00pm 24.3 22.1 13.2 50 6.5 SSE 17 22 9 12 1009.5 1009.3 0.0
26/11:30am 23.8 21.0 14.2 55 5.7 SE 22 32 12 17 1009.3 1009.1 0.0
26/11:00am 26.9 21.9 9.7 34 9.6 E 26 35 14 19 1010.2 1010.0 0.0
26/10:30am 27.6 21.8 9.4 32 10.1 E 30 41 16 22 1010.6 1010.4 0.0
26/10:00am 25.6 19.9 9.8 37 8.7 ENE 30 41 16 22 1011.3 1011.1 0.0
26/09:30am 26.2 20.9 11.2 39 8.5 E 30 41 16 22 1011.4 1011.2 0.0
26/09:00am 24.8 18.7 10.3 40 8.0 E 33 43 18 23 1011.7 1011.5 0.0
26/08:30am 23.5 17.3 10.2 43 7.3 E 33 44 18 24 1011.9 1011.7 0.0
26/08:00am 21.9 16.9 11.0 50 6.0 E 28 41 15 22 1012.2 1012.0 0.0
26/07:30am 21.3 16.3 10.8 51 5.8 E 28 37 15 20 1012.1 1011.9 0.0
26/07:00am 21.0 16.6 10.5 51 5.7 E 24 33 13 18 1012.2 1012.0 0.0
26/06:30am 20.6 17.1 11.0 54 5.3 E 20 28 11 15 1012.1 1011.9 0.0
26/06:00am 20.3 16.7 10.7 54 5.2 E 20 33 11 18 1012.1 1011.9 0.0
26/05:30am 20.4 14.9 10.5 53 5.4 E 30 41 16 22 1011.9 1011.7 0.0
26/05:00am 20.5 15.6 10.0 51 5.7 E 26 41 14 22 1011.8 1011.6 0.0
26/04:30am 20.6 14.7 10.4 52 5.5 E 32 41 17 22 1011.8 1011.6 0.0
26/04:00am 20.8 14.9 10.3 51 5.7 E 32 43 17 23 1011.8 1011.6 0.0
26/03:30am 20.9 17.6 11.5 55 5.2 E 20 30 11 16 1011.8 1011.6 0.0
26/03:00am 21.4 17.5 10.9 51 5.8 E 22 32 12 17 1011.8 1011.6 0.0
26/02:31am 22.2 16.9 10.0 46 6.6 E 28 46 15 25 1011.6 1011.4 0.0
26/02:30am 22.1 16.9 10.3 47 6.5 E 28 39 15 21 1011.6 1011.4 0.0
26/02:06am 22.3 17.1 10.1 46 6.7 E 28 46 15 25 1011.3 1011.1 0.0
26/02:00am 22.4 18.0 10.5 47 6.5 E 24 35 13 19 1011.5 1011.3 0.0
26/01:30am 23.1 18.5 10.9 46 6.8 E 26 41 14 22 1011.6 1011.4 0.0
26/01:19am 23.3 18.1 10.4 44 7.1 E 28 46 15 25 1011.7 1011.5 0.0
26/01:00am 23.7 18.2 10.4 43 7.4 E 30 41 16 22 1011.4 1011.2 0.0
26/12:30am 24.2 18.1 9.8 40 7.9 E 32 43 17 23 1011.6 1011.4 0.0
26/12:00am 24.2 19.6 9.8 40 7.9 ESE 24 37 13 20 1011.7 1011.5 0.0
 
Date/Time
WST
Temp
°C
App
Temp
°C
Dew
Point
Rel
Hum
%
Delta-T
°C
Wind Press
QNH
hPa
Press
MSL
hPa
Rain
since 9 am
mm
Dir
 
Spd
km/h
Gust
km/h
Spd
kts
Gust
kts
25/11:30pm 24.8 19.0 7.9 34 9.0 ESE 28 43 15 23 1011.8 1011.6 0.0
25/11:00pm 24.9 19.5 8.0 34 9.0 ESE 26 39 14 21 1012.0 1011.8 0.0
25/10:30pm 23.0 18.6 11.7 49 6.4 SE 26 32 14 17 1012.3 1012.1 0.0
25/10:00pm 22.1 18.2 14.5 62 4.5 SE 28 33 15 18 1012.5 1012.3 0.0
25/09:30pm 22.3 19.0 14.9 63 4.4 SSE 26 33 14 18 1012.5 1012.3 0.0
25/09:00pm 22.1 19.4 15.7 67 3.8 SSE 24 32 13 17 1012.7 1012.5 0.0
25/08:30pm 21.8 18.9 16.1 70 3.4 SSE 26 33 14 18 1012.7 1012.5 0.0
25/08:00pm 21.7 17.9 15.8 69 3.5 S 30 37 16 20 1012.5 1012.3 0.0
25/07:30pm 22.0 16.7 15.4 66 3.9 S 37 46 20 25 1012.0 1011.8 0.0
25/07:00pm 22.0 15.4 14.9 64 4.2 S 43 50 23 27 1011.6 1011.4 0.0
25/06:30pm 22.2 16.3 14.8 63 4.4 S 39 48 21 26 1011.8 1011.6 0.0
25/06:00pm 22.3 16.6 15.2 64 4.2 S 39 48 21 26 1011.9 1011.7 0.0
25/05:30pm 22.5 16.9 15.4 64 4.2 S 39 50 21 27 1012.2 1012.0 0.0
25/05:00pm 22.5 16.5 15.4 64 4.3 S 41 50 22 27 1012.3 1012.1 0.0
25/04:30pm 23.3 17.8 14.8 59 5.1 S 37 46 20 25 1012.8 1012.6 0.0
25/04:00pm 23.5 17.5 14.5 57 5.3 S 39 48 21 26 1013.0 1012.8 0.0
25/03:30pm 23.5 18.3 15.5 60 4.8 S 37 44 20 24 1013.5 1013.4 0.0
25/03:00pm 24.0 19.5 15.5 59 5.1 S 33 41 18 22 1014.0 1013.9 0.0
25/02:30pm 23.9 19.6 15.4 59 5.1 S 32 39 17 21 1014.4 1014.3 0.0
25/02:00pm 24.7 20.3 15.1 55 5.8 S 32 41 17 22 1014.6 1014.5 0.0
25/01:30pm 24.9 20.8 15.0 54 5.9 S 30 37 16 20 1015.2 1015.1 0.0
25/01:00pm 24.4 20.5 14.5 54 5.9 S 28 35 15 19 1015.7 1015.6 0.0
25/12:30pm 23.6 19.6 14.0 55 5.6 S 28 35 15 19 1015.9 1015.8 0.0
25/12:00pm 23.1 18.9 13.6 55 5.5 S 28 33 15 18 1016.3 1016.2 0.0
25/11:30am 23.7 20.1 12.0 48 6.6 S 22 26 12 14 1016.9 1016.8 0.0
25/11:00am 23.5 19.6 9.5 41 7.6 S 20 26 11 14 1017.2 1017.1 0.0
25/10:30am 24.0 20.2 9.9 41 7.7 SSE 20 26 11 14 1017.5 1017.4 0.0
25/10:00am 24.1 21.1 10.7 43 7.4 SE 17 24 9 13 1017.8 1017.7 0.0
25/09:30am 23.0 18.5 8.7 40 7.6 E 22 33 12 18 1018.1 1018.0 0.0
25/09:00am 21.2 16.8 8.8 45 6.5 E 22 32 12 17 1018.3 1018.2 0.0
25/08:30am 20.0 15.8 8.4 47 6.1 E 20 28 11 15 1018.5 1018.4 0.0
25/08:00am 19.0 13.7 8.4 50 5.5 E 26 33 14 18 1018.7 1018.6 0.0
25/07:30am 18.3 12.9 8.0 51 5.3 E 26 33 14 18 1018.6 1018.5 0.0
25/07:00am 17.8 13.1 7.8 52 5.1 E 22 35 12 19 1018.3 1018.2 0.0
25/06:30am 17.2 12.1 7.8 54 4.8 E 24 37 13 20 1018.2 1018.1 0.0
25/06:00am 16.9 11.8 7.8 55 4.6 E 24 32 13 17 1018.0 1017.9 0.0
25/05:30am 16.1 11.5 8.1 59 4.0 E 22 30 12 16 1017.7 1017.6 0.0
25/05:00am 16.1 12.2 8.6 61 3.8 ESE 19 26 10 14 1017.6 1017.5 0.0
25/04:30am 16.6 12.2 9.1 61 3.9 ESE 22 30 12 16 1017.2 1017.1 0.0
25/04:00am 17.0 13.0 8.9 59 4.2 ESE 20 32 11 17 1017.2 1017.1 0.0
25/03:30am 17.1 13.3 9.0 59 4.2 ESE 19 24 10 13 1017.2 1017.1 0.0
25/03:00am 17.5 14.0 8.9 57 4.5 ESE 17 22 9 12 1017.4 1017.3 0.0
25/02:30am 18.0 13.9 8.0 52 5.1 E 19 26 10 14 1017.3 1017.2 0.0
25/02:00am 18.4 13.4 8.1 51 5.3 E 24 37 13 20 1017.3 1017.2 0.0
25/01:30am 18.5 13.5 8.2 51 5.3 ESE 24 39 13 21 1017.4 1017.3 0.0
25/01:00am 18.3 14.1 11.1 63 3.9 SE 24 33 13 18 1017.7 1017.6 0.0
25/12:30am 18.7 14.3 14.0 74 2.7 SSE 30 37 16 20 1017.7 1017.6 0.0
25/12:00am 18.7 14.2 13.8 73 2.8 SSE 30 37 16 20 1017.8 1017.7 0.0
 
Date/Time
WST
Temp
°C
App
Temp
°C
Dew
Point
Rel
Hum
%
Delta-T
°C
Wind Press
QNH
hPa
Press
MSL
hPa
Rain
since 9 am
mm
Dir
 
Spd
km/h
Gust
km/h
Spd
kts
Gust
kts
24/11:30pm 18.5 14.2 14.4 77 2.4 SSE 30 35 16 19 1018.0 1017.9 0.0
24/11:00pm 18.6 13.6 13.5 72 2.9 S 32 39 17 21 1018.2 1018.1 0.0
24/10:30pm 18.8 13.5 14.3 75 2.6 S 35 46 19 25 1018.3 1018.2 0.0
24/10:00pm 18.8 13.1 14.3 75 2.6 S 37 46 20 25 1018.5 1018.4 0.0
24/09:30pm 19.0 12.0 13.8 72 3.0 S 43 54 23 29 1018.6 1018.5 0.0
24/09:00pm 19.0 13.0 14.3 74 2.7 S 39 52 21 28 1018.8 1018.7 0.0
24/08:30pm 19.0 12.4 14.9 77 2.4 S 43 50 23 27 1018.7 1018.6 0.0
24/08:00pm 18.7 12.3 14.2 75 2.6 S 41 50 22 27 1018.7 1018.6 0.0
24/07:30pm 18.5 11.5 13.8 74 2.7 S 43 52 23 28 1018.5 1018.4 0.0
24/07:00pm 18.2 10.9 13.3 73 2.8 S 44 56 24 30 1018.3 1018.2 0.0
24/06:30pm 18.4 11.2 13.0 71 3.0 S 43 56 23 30 1018.2 1018.1 0.0
24/06:00pm 18.7 10.9 12.9 69 3.3 S 46 56 25 30 1018.1 1018.0 0.0
24/05:30pm 18.8 10.8 12.3 66 3.6 S 46 57 25 31 1018.0 1017.9 0.0
24/05:00pm 19.2 10.2 11.5 61 4.2 S 50 57 27 31 1018.0 1017.9 0.0
24/04:30pm 19.5 11.8 11.5 60 4.4 SSW 43 56 23 30 1018.0 1017.9 0.0
24/04:00pm 19.1 11.0 10.6 58 4.6 SSW 44 54 24 29 1018.2 1018.1 0.0
24/03:30pm 20.1 12.7 11.1 56 4.9 S 41 48 22 26 1018.5 1018.4 0.0
24/03:00pm 19.7 12.1 10.4 55 5.0 SSW 41 48 22 26 1018.7 1018.6 0.0
24/02:30pm 19.8 12.5 10.2 54 5.2 SSW 39 46 21 25 1019.1 1019.0 0.0
24/02:00pm 20.3 13.7 10.1 52 5.5 SSW 35 43 19 23 1019.4 1019.3 0.0
24/01:30pm 20.5 14.4 9.7 50 5.8 S 32 39 17 21 1019.6 1019.5 0.0
24/01:00pm 19.1 13.1 8.7 51 5.4 SSW 30 39 16 21 1020.0 1019.9 0.0
24/12:30pm 19.8 14.4 8.2 47 6.0 S 26 32 14 17 1020.3 1020.2 0.0
24/12:00pm 20.9 15.9 7.9 43 6.7 S 24 30 13 16 1020.6 1020.5 0.0
24/11:30am 19.7 15.0 7.8 46 6.1 S 22 28 12 15 1021.0 1020.9 0.0
24/11:00am 19.9 15.5 7.3 44 6.4 SSE 20 26 11 14 1021.3 1021.2 0.0
24/10:30am 18.5 13.6 7.0 47 5.8 SSE 22 26 12 14 1021.6 1021.5 0.0
24/10:00am 18.0 13.3 6.2 46 5.8 S 20 24 11 13 1021.8 1021.7 0.0
24/09:30am 17.2 12.6 5.8 47 5.5 SE 19 30 10 16 1022.0 1021.9 0.0
24/09:00am 16.8 12.1 6.0 49 5.2 SE 20 30 11 16 1022.2 1022.1 0.0
24/08:30am 16.7 12.1 6.5 51 5.0 SE 20 30 11 16 1022.3 1022.2 0.0
24/08:00am 15.8 11.3 6.0 52 4.7 ESE 19 28 10 15 1022.5 1022.4 0.0
24/07:30am 15.7 11.0 6.2 53 4.6 ESE 20 32 11 17 1022.4 1022.3 0.0
24/07:00am 14.8 9.7 6.1 56 4.2 ESE 22 32 12 17 1022.3 1022.2 0.0
24/06:30am 14.3 8.4 5.9 57 4.0 E 26 35 14 19 1022.2 1022.1 0.0
24/06:00am 13.6 8.4 5.5 58 3.8 ESE 22 35 12 19 1022.1 1022.0 0.0
24/05:30am 13.0 7.0 5.2 59 3.6 SE 26 35 14 19 1021.9 1021.8 0.0
24/05:00am 13.1 6.4 5.8 61 3.4 SE 30 37 16 20 1021.6 1021.5 0.0
24/04:30am 13.3 7.1 6.2 62 3.4 SE 28 39 15 21 1021.3 1021.2 0.0
24/04:00am 13.3 7.6 6.9 65 3.1 SE 26 37 14 20 1021.2 1021.1 0.0
24/03:30am 13.3 6.3 6.2 62 3.4 SE 32 41 17 22 1020.9 1020.8 0.0
24/03:00am 13.6 6.7 6.5 62 3.4 SE 32 39 17 21 1020.9 1020.8 0.0
24/02:30am 13.8 6.7 6.4 61 3.6 SE 33 44 18 24 1020.7 1020.6 0.0
24/02:00am 14.1 6.3 6.5 60 3.7 SE 37 48 20 26 1020.5 1020.4 0.0
24/01:30am 14.3 6.9 6.6 60 3.7 SSE 35 50 19 27 1020.4 1020.3 0.0
24/01:00am 14.8 6.5 7.6 62 3.6 SSE 41 54 22 29 1020.3 1020.2 0.0
24/12:30am 14.9 4.8 7.5 61 3.7 SSE 50 57 27 31 1020.0 1019.9 0.0
24/12:00am 15.3 6.1 8.1 62 3.6 SSE 46 57 25 31 1020.1 1020.0 0.0
 
Date/Time
WST
Temp
°C
App
Temp
°C
Dew
Point
Rel
Hum
%
Delta-T
°C
Wind Press
QNH
hPa
Press
MSL
hPa
Rain
since 9 am
mm
Dir
 
Spd
km/h
Gust
km/h
Spd
kts
Gust
kts
23/11:30pm 15.6 6.0 8.1 61 3.8 S 48 59 26 32 1019.8 1019.7 0.0
23/11:00pm 16.0 6.4 8.0 59 4.0 S 48 59 26 32 1019.9 1019.8 0.0

Other Formats:

Comma delimited format used in spreadsheet applications
http://www.bom.gov.au/fwo/IDW60801/IDW60801.94602.axf

JavaScript Object Notation format (JSON) in row-major order
http://www.bom.gov.au/fwo/IDW60801/IDW60801.94602.json